Azamgarh, India

4:36 PM IST on August 28, 2014 (GMT +0530)
Varanasi | Change Station
CLOSE
Current Station
Airport
Location: Varanasi - Babatpur,
Elevation: 266 ft
Nearby Weather Stations

Elev 266 ft 25.45 °N, 82.86 °E | Updated 36 minutes ago

Haze
Haze
91 °F
Feels Like 107 °F
N
10
Wind Variable Wind from East

Today
High -- | Low -- °F
--% Chance of Precip.
Yesterday
High -- | Low -- °F
Precip. -- in
5:35 AM 6:21 PM
Waxing Crescent, 7% visible
Pressure 29.56 in
Visibility 3.1 miles
Clouds Scattered Clouds 2500 ft
Heat Index 107 °F
Dew Point 79 °F
Humidity 66%
Rainfall 0.00 in
Snow Depth Not available.
UV 4 out of 12
Pollen Not available.
Air Quality Not available.
Flu Activity Not available.
METAR VIBN 281030Z 10009KT 5000 HZ SCT025 33/26 Q1001

More Conditions Fewer Conditions

Pressure 29.56 in
Visibility 3.1 miles
Clouds Scattered Clouds 2500 ft
Heat Index 107 °F
Dew Point 79 °F
Humidity 66%
Rainfall 0.00 in
Snow Depth Not available.
UV 4 out of 12
Pollen Not available.
Air Quality Not available.
Flu Activity Not available.
METAR VIBN 281030Z 10009KT 5000 HZ SCT025 33/26 Q1001

More Conditions Fewer Conditions

10-Day Weather Forecast

Almanac

Astronomy

Aug. 28, 2014 Rise Set
Actual Time 5:35 AM IST 6:21 PM IST
Civil Twilight 5:11 AM IST 6:44 PM IST
Nautical Twilight 4:44 AM IST 7:12 PM IST
Astronomical Twilight 4:15 AM IST 7:40 PM IST
Moon 7:42 AM IST 7:50 PM IST
Length of Visible Light 13h 32m
Length of Day
12h 45m
Tomorrow will be 1m 27s shorter.
Waxing Crescent, 7% of the Moon is Illuminated
Today
Waxing Crescent
Sep 2
First Quarter
Sep 8
Full
Sep 15
Last Quarter
Sep 24
New

Yesterday's Extremes

Country Highs Country Lows

Community

WunderPhotos

Upload Photos

1,747,923 photos uploaded!

Nearby

Snow Depth

Not available.

Earthquake Activity

City Distance Mag. Time & Date
No recent earthquake activity has been reported nearby.
Minimum magnitude displayed is 2.5.

Coastal Water Temperatures

Place Temperature
No Stations Reporting

Nearby Weather Stations